sensor_id;sensor_type;location;lat;lon;timestamp;P1;durP1;ratioP1;P2;durP2;ratioP2
16977;SDS011;8605;52.548;4.918;2022-11-15T00:03:08;31.13;;;13.37;;
16977;SDS011;8605;52.548;4.918;2022-11-15T00:08:50;28.00;;;14.10;;
16977;SDS011;8605;52.548;4.918;2022-11-15T00:14:33;28.13;;;12.37;;
16977;SDS011;8605;52.548;4.918;2022-11-15T00:20:15;28.33;;;13.70;;
16977;SDS011;8605;52.548;4.918;2022-11-15T00:25:58;27.47;;;13.13;;
16977;SDS011;8605;52.548;4.918;2022-11-15T00:31:41;26.83;;;14.67;;
16977;SDS011;8605;52.548;4.918;2022-11-15T00:37:23;30.90;;;13.87;;
16977;SDS011;8605;52.548;4.918;2022-11-15T00:43:04;40.33;;;14.97;;
16977;SDS011;8605;52.548;4.918;2022-11-15T00:48:47;29.90;;;15.07;;
16977;SDS011;8605;52.548;4.918;2022-11-15T00:54:29;40.70;;;18.13;;
16977;SDS011;8605;52.548;4.918;2022-11-15T01:00:11;35.33;;;16.87;;
16977;SDS011;8605;52.548;4.918;2022-11-15T01:05:56;34.50;;;17.67;;
16977;SDS011;8605;52.548;4.918;2022-11-15T01:11:40;44.17;;;16.97;;
16977;SDS011;8605;52.548;4.918;2022-11-15T01:17:22;45.53;;;17.03;;
16977;SDS011;8605;52.548;4.918;2022-11-15T01:23:05;41.03;;;18.50;;
16977;SDS011;8605;52.548;4.918;2022-11-15T01:28:47;34.73;;;18.07;;
16977;SDS011;8605;52.548;4.918;2022-11-15T01:34:28;46.70;;;17.37;;
16977;SDS011;8605;52.548;4.918;2022-11-15T01:40:12;36.13;;;17.23;;
16977;SDS011;8605;52.548;4.918;2022-11-15T01:45:55;45.60;;;17.27;;
16977;SDS011;8605;52.548;4.918;2022-11-15T01:51:39;44.97;;;17.50;;
16977;SDS011;8605;52.548;4.918;2022-11-15T01:57:22;47.23;;;20.13;;
16977;SDS011;8605;52.548;4.918;2022-11-15T02:03:04;38.43;;;17.40;;
16977;SDS011;8605;52.548;4.918;2022-11-15T02:08:46;36.87;;;16.37;;
16977;SDS011;8605;52.548;4.918;2022-11-15T02:14:29;34.73;;;18.07;;
16977;SDS011;8605;52.548;4.918;2022-11-15T02:20:29;37.27;;;16.30;;
16977;SDS011;8605;52.548;4.918;2022-11-15T02:26:37;37.37;;;17.53;;
16977;SDS011;8605;52.548;4.918;2022-11-15T02:32:37;46.50;;;16.03;;
16977;SDS011;8605;52.548;4.918;2022-11-15T02:38:24;39.33;;;16.67;;
16977;SDS011;8605;52.548;4.918;2022-11-15T02:44:12;38.63;;;16.83;;
16977;SDS011;8605;52.548;4.918;2022-11-15T02:49:58;56.07;;;18.20;;
16977;SDS011;8605;52.548;4.918;2022-11-15T02:55:43;50.97;;;19.17;;
16977;SDS011;8605;52.548;4.918;2022-11-15T03:01:31;42.97;;;18.03;;
16977;SDS011;8605;52.548;4.918;2022-11-15T03:07:21;36.40;;;17.73;;
16977;SDS011;8605;52.548;4.918;2022-11-15T03:13:08;38.10;;;16.97;;
16977;SDS011;8605;52.548;4.918;2022-11-15T03:18:55;40.57;;;21.87;;
16977;SDS011;8605;52.548;4.918;2022-11-15T03:24:40;46.67;;;21.37;;
16977;SDS011;8605;52.548;4.918;2022-11-15T03:30:24;49.60;;;20.30;;
16977;SDS011;8605;52.548;4.918;2022-11-15T03:36:06;55.50;;;18.73;;
16977;SDS011;8605;52.548;4.918;2022-11-15T03:41:50;54.77;;;21.20;;
16977;SDS011;8605;52.548;4.918;2022-11-15T03:47:38;44.73;;;20.10;;
16977;SDS011;8605;52.548;4.918;2022-11-15T03:53:21;59.40;;;22.93;;
16977;SDS011;8605;52.548;4.918;2022-11-15T03:59:05;49.70;;;20.37;;
16977;SDS011;8605;52.548;4.918;2022-11-15T04:04:46;52.13;;;22.87;;
16977;SDS011;8605;52.548;4.918;2022-11-15T04:10:28;61.07;;;24.03;;
16977;SDS011;8605;52.548;4.918;2022-11-15T04:16:11;46.30;;;21.67;;
16977;SDS011;8605;52.548;4.918;2022-11-15T04:21:53;51.30;;;22.03;;
16977;SDS011;8605;52.548;4.918;2022-11-15T04:27:53;44.70;;;21.60;;
16977;SDS011;8605;52.548;4.918;2022-11-15T04:33:36;51.73;;;24.13;;
16977;SDS011;8605;52.548;4.918;2022-11-15T04:39:17;55.03;;;22.37;;
16977;SDS011;8605;52.548;4.918;2022-11-15T04:44:59;51.57;;;21.67;;
16977;SDS011;8605;52.548;4.918;2022-11-15T04:50:42;41.23;;;20.20;;
16977;SDS011;8605;52.548;4.918;2022-11-15T04:56:24;50.87;;;23.50;;
16977;SDS011;8605;52.548;4.918;2022-11-15T05:02:05;52.27;;;24.83;;
16977;SDS011;8605;52.548;4.918;2022-11-15T05:07:49;41.07;;;20.80;;
16977;SDS011;8605;52.548;4.918;2022-11-15T05:13:31;43.67;;;20.87;;
16977;SDS011;8605;52.548;4.918;2022-11-15T05:19:13;46.97;;;19.73;;
16977;SDS011;8605;52.548;4.918;2022-11-15T05:24:56;45.57;;;21.20;;
16977;SDS011;8605;52.548;4.918;2022-11-15T05:30:38;45.67;;;20.10;;
16977;SDS011;8605;52.548;4.918;2022-11-15T05:36:21;39.97;;;18.63;;
16977;SDS011;8605;52.548;4.918;2022-11-15T05:42:09;38.53;;;19.27;;
16977;SDS011;8605;52.548;4.918;2022-11-15T05:47:51;47.73;;;19.40;;
16977;SDS011;8605;52.548;4.918;2022-11-15T05:53:36;34.83;;;17.13;;
16977;SDS011;8605;52.548;4.918;2022-11-15T05:59:19;40.50;;;19.13;;
16977;SDS011;8605;52.548;4.918;2022-11-15T06:05:01;38.17;;;18.40;;
16977;SDS011;8605;52.548;4.918;2022-11-15T06:10:43;38.50;;;18.17;;
16977;SDS011;8605;52.548;4.918;2022-11-15T06:16:26;34.30;;;18.23;;
16977;SDS011;8605;52.548;4.918;2022-11-15T06:22:08;37.87;;;15.30;;
16977;SDS011;8605;52.548;4.918;2022-11-15T06:27:50;30.80;;;16.00;;
16977;SDS011;8605;52.548;4.918;2022-11-15T06:33:34;29.77;;;16.97;;
16977;SDS011;8605;52.548;4.918;2022-11-15T06:39:16;39.40;;;16.47;;
16977;SDS011;8605;52.548;4.918;2022-11-15T06:44:57;29.40;;;14.87;;
16977;SDS011;8605;52.548;4.918;2022-11-15T06:50:41;28.40;;;14.73;;
16977;SDS011;8605;52.548;4.918;2022-11-15T06:56:22;25.13;;;14.60;;
16977;SDS011;8605;52.548;4.918;2022-11-15T07:02:05;26.90;;;13.57;;
16977;SDS011;8605;52.548;4.918;2022-11-15T07:07:52;25.50;;;14.97;;
16977;SDS011;8605;52.548;4.918;2022-11-15T07:13:35;30.40;;;14.53;;
16977;SDS011;8605;52.548;4.918;2022-11-15T07:19:17;33.53;;;14.93;;
16977;SDS011;8605;52.548;4.918;2022-11-15T07:25:01;26.43;;;14.30;;
16977;SDS011;8605;52.548;4.918;2022-11-15T07:30:44;28.30;;;15.57;;
16977;SDS011;8605;52.548;4.918;2022-11-15T07:36:26;26.70;;;14.70;;
16977;SDS011;8605;52.548;4.918;2022-11-15T07:42:09;27.43;;;14.67;;
16977;SDS011;8605;52.548;4.918;2022-11-15T07:48:09;25.60;;;13.60;;
16977;SDS011;8605;52.548;4.918;2022-11-15T07:53:51;33.23;;;14.60;;
16977;SDS011;8605;52.548;4.918;2022-11-15T07:59:34;28.77;;;13.43;;
16977;SDS011;8605;52.548;4.918;2022-11-15T08:05:16;23.47;;;12.23;;
16977;SDS011;8605;52.548;4.918;2022-11-15T08:10:58;21.47;;;12.23;;
16977;SDS011;8605;52.548;4.918;2022-11-15T08:16:41;25.87;;;13.23;;
16977;SDS011;8605;52.548;4.918;2022-11-15T08:22:23;25.63;;;12.13;;
16977;SDS011;8605;52.548;4.918;2022-11-15T08:28:06;21.77;;;9.97;;
16977;SDS011;8605;52.548;4.918;2022-11-15T08:33:50;25.90;;;11.60;;
16977;SDS011;8605;52.548;4.918;2022-11-15T08:39:32;20.23;;;10.13;;
16977;SDS011;8605;52.548;4.918;2022-11-15T08:45:14;21.87;;;11.70;;
16977;SDS011;8605;52.548;4.918;2022-11-15T08:50:57;21.43;;;9.47;;
16977;SDS011;8605;52.548;4.918;2022-11-15T08:56:39;16.67;;;8.60;;
16977;SDS011;8605;52.548;4.918;2022-11-15T09:02:21;15.37;;;7.93;;
16977;SDS011;8605;52.548;4.918;2022-11-15T09:08:05;18.20;;;8.90;;
16977;SDS011;8605;52.548;4.918;2022-11-15T09:14:07;19.03;;;10.50;;
16977;SDS011;8605;52.548;4.918;2022-11-15T09:19:48;18.47;;;10.77;;
16977;SDS011;8605;52.548;4.918;2022-11-15T09:25:32;19.47;;;9.50;;
16977;SDS011;8605;52.548;4.918;2022-11-15T09:31:14;17.90;;;10.33;;
16977;SDS011;8605;52.548;4.918;2022-11-15T09:37:01;15.47;;;9.03;;
16977;SDS011;8605;52.548;4.918;2022-11-15T09:42:47;14.40;;;8.23;;
16977;SDS011;8605;52.548;4.918;2022-11-15T09:54:38;11.67;;;6.10;;
16977;SDS011;8605;52.548;4.918;2022-11-15T10:00:19;16.47;;;6.03;;
16977;SDS011;8605;52.548;4.918;2022-11-15T10:06:05;13.70;;;5.27;;
16977;SDS011;8605;52.548;4.918;2022-11-15T10:11:30;8.47;;;4.70;;
16977;SDS011;8605;52.548;4.918;2022-11-15T10:17:06;13.23;;;4.50;;
16977;SDS011;8605;52.548;4.918;2022-11-15T10:22:45;6.67;;;4.20;;
16977;SDS011;8605;52.548;4.918;2022-11-15T10:28:11;12.00;;;4.40;;
16977;SDS011;8605;52.548;4.918;2022-11-15T10:33:39;7.87;;;3.50;;
16977;SDS011;8605;52.548;4.918;2022-11-15T10:39:02;3.67;;;2.77;;
16977;SDS011;8605;52.548;4.918;2022-11-15T10:44:26;9.03;;;3.40;;
16977;SDS011;8605;52.548;4.918;2022-11-15T10:49:55;5.33;;;3.90;;
16977;SDS011;8605;52.548;4.918;2022-11-15T10:55:24;6.40;;;3.83;;
16977;SDS011;8605;52.548;4.918;2022-11-15T11:00:49;7.17;;;3.63;;
16977;SDS011;8605;52.548;4.918;2022-11-15T11:06:17;5.20;;;2.70;;
16977;SDS011;8605;52.548;4.918;2022-11-15T11:11:44;5.97;;;3.07;;
16977;SDS011;8605;52.548;4.918;2022-11-15T11:17:10;3.77;;;3.00;;
16977;SDS011;8605;52.548;4.918;2022-11-15T11:22:39;4.80;;;2.07;;
16977;SDS011;8605;52.548;4.918;2022-11-15T11:28:20;6.40;;;2.93;;
16977;SDS011;8605;52.548;4.918;2022-11-15T11:33:54;7.40;;;2.27;;
16977;SDS011;8605;52.548;4.918;2022-11-15T11:39:27;7.40;;;2.10;;
16977;SDS011;8605;52.548;4.918;2022-11-15T11:44:57;4.60;;;2.20;;
16977;SDS011;8605;52.548;4.918;2022-11-15T11:50:25;4.80;;;2.40;;
16977;SDS011;8605;52.548;4.918;2022-11-15T11:55:51;3.73;;;1.93;;
16977;SDS011;8605;52.548;4.918;2022-11-15T12:01:18;4.73;;;1.80;;
16977;SDS011;8605;52.548;4.918;2022-11-15T12:06:46;11.77;;;3.43;;
16977;SDS011;8605;52.548;4.918;2022-11-15T12:12:15;5.00;;;1.93;;
16977;SDS011;8605;52.548;4.918;2022-11-15T12:17:41;1.87;;;1.30;;
16977;SDS011;8605;52.548;4.918;2022-11-15T12:23:05;8.60;;;2.63;;
16977;SDS011;8605;52.548;4.918;2022-11-15T12:28:34;10.83;;;2.33;;
16977;SDS011;8605;52.548;4.918;2022-11-15T12:33:58;3.77;;;2.00;;
16977;SDS011;8605;52.548;4.918;2022-11-15T12:45:41;2.37;;;1.50;;
16977;SDS011;8605;52.548;4.918;2022-11-15T12:51:05;3.33;;;1.30;;
16977;SDS011;8605;52.548;4.918;2022-11-15T12:56:28;13.00;;;1.10;;
16977;SDS011;8605;52.548;4.918;2022-11-15T13:01:56;2.47;;;1.77;;
16977;SDS011;8605;52.548;4.918;2022-11-15T13:13:16;2.73;;;1.37;;
16977;SDS011;8605;52.548;4.918;2022-11-15T13:19:10;3.73;;;1.53;;
16977;SDS011;8605;52.548;4.918;2022-11-15T13:24:37;2.23;;;2.03;;
16977;SDS011;8605;52.548;4.918;2022-11-15T13:30:02;8.53;;;1.20;;
16977;SDS011;8605;52.548;4.918;2022-11-15T13:35:28;3.23;;;1.47;;
16977;SDS011;8605;52.548;4.918;2022-11-15T13:40:53;1.20;;;1.00;;
16977;SDS011;8605;52.548;4.918;2022-11-15T13:46:17;7.37;;;2.93;;
16977;SDS011;8605;52.548;4.918;2022-11-15T13:51:44;2.57;;;1.57;;
16977;SDS011;8605;52.548;4.918;2022-11-15T13:57:09;2.10;;;1.10;;
16977;SDS011;8605;52.548;4.918;2022-11-15T14:02:35;5.77;;;1.00;;
16977;SDS011;8605;52.548;4.918;2022-11-15T14:08:00;4.07;;;1.33;;
16977;SDS011;8605;52.548;4.918;2022-11-15T14:13:29;5.80;;;0.87;;
16977;SDS011;8605;52.548;4.918;2022-11-15T14:18:53;5.43;;;0.90;;
16977;SDS011;8605;52.548;4.918;2022-11-15T14:24:19;2.97;;;1.20;;
16977;SDS011;8605;52.548;4.918;2022-11-15T14:29:43;4.03;;;1.30;;
16977;SDS011;8605;52.548;4.918;2022-11-15T14:35:08;2.23;;;0.80;;
16977;SDS011;8605;52.548;4.918;2022-11-15T14:40:37;5.47;;;0.93;;
16977;SDS011;8605;52.548;4.918;2022-11-15T14:46:00;2.13;;;1.23;;
16977;SDS011;8605;52.548;4.918;2022-11-15T14:51:23;10.87;;;1.20;;
16977;SDS011;8605;52.548;4.918;2022-11-15T14:56:49;1.03;;;0.83;;
16977;SDS011;8605;52.548;4.918;2022-11-15T15:02:16;8.20;;;1.53;;
16977;SDS011;8605;52.548;4.918;2022-11-15T15:07:41;3.80;;;1.00;;
16977;SDS011;8605;52.548;4.918;2022-11-15T15:13:16;3.30;;;1.10;;
16977;SDS011;8605;52.548;4.918;2022-11-15T15:18:41;2.07;;;1.40;;
16977;SDS011;8605;52.548;4.918;2022-11-15T15:24:05;2.90;;;1.70;;
16977;SDS011;8605;52.548;4.918;2022-11-15T15:29:29;5.20;;;1.77;;
16977;SDS011;8605;52.548;4.918;2022-11-15T15:34:52;3.30;;;1.20;;
16977;SDS011;8605;52.548;4.918;2022-11-15T15:40:16;1.20;;;0.93;;
16977;SDS011;8605;52.548;4.918;2022-11-15T15:45:43;3.93;;;1.40;;
16977;SDS011;8605;52.548;4.918;2022-11-15T15:51:06;4.63;;;1.50;;
16977;SDS011;8605;52.548;4.918;2022-11-15T15:56:40;4.63;;;1.47;;
16977;SDS011;8605;52.548;4.918;2022-11-15T16:02:05;1.93;;;1.10;;
16977;SDS011;8605;52.548;4.918;2022-11-15T16:07:28;2.63;;;1.23;;
16977;SDS011;8605;52.548;4.918;2022-11-15T16:12:52;6.73;;;1.73;;
16977;SDS011;8605;52.548;4.918;2022-11-15T16:18:17;5.33;;;1.37;;
16977;SDS011;8605;52.548;4.918;2022-11-15T16:23:40;1.63;;;1.53;;
16977;SDS011;8605;52.548;4.918;2022-11-15T16:29:04;2.33;;;1.63;;
16977;SDS011;8605;52.548;4.918;2022-11-15T16:34:29;1.20;;;0.90;;
16977;SDS011;8605;52.548;4.918;2022-11-15T16:40:00;4.17;;;0.70;;
16977;SDS011;8605;52.548;4.918;2022-11-15T16:45:23;2.80;;;1.07;;
16977;SDS011;8605;52.548;4.918;2022-11-15T16:50:48;4.23;;;1.00;;
16977;SDS011;8605;52.548;4.918;2022-11-15T16:56:14;1.93;;;0.60;;
16977;SDS011;8605;52.548;4.918;2022-11-15T17:01:41;1.37;;;1.07;;
16977;SDS011;8605;52.548;4.918;2022-11-15T17:07:12;2.23;;;1.33;;
16977;SDS011;8605;52.548;4.918;2022-11-15T17:12:35;1.27;;;0.83;;
16977;SDS011;8605;52.548;4.918;2022-11-15T17:18:01;2.83;;;1.53;;
16977;SDS011;8605;52.548;4.918;2022-11-15T17:23:25;1.43;;;0.87;;
16977;SDS011;8605;52.548;4.918;2022-11-15T17:28:52;1.23;;;0.80;;
16977;SDS011;8605;52.548;4.918;2022-11-15T17:34:16;1.70;;;0.97;;
16977;SDS011;8605;52.548;4.918;2022-11-15T17:39:41;1.40;;;0.90;;
16977;SDS011;8605;52.548;4.918;2022-11-15T17:45:04;1.67;;;1.13;;
16977;SDS011;8605;52.548;4.918;2022-11-15T17:50:31;3.43;;;1.37;;
16977;SDS011;8605;52.548;4.918;2022-11-15T17:55:56;2.60;;;1.40;;
16977;SDS011;8605;52.548;4.918;2022-11-15T18:01:24;2.30;;;1.93;;
16977;SDS011;8605;52.548;4.918;2022-11-15T18:06:48;1.37;;;1.27;;
16977;SDS011;8605;52.548;4.918;2022-11-15T18:12:13;5.63;;;1.40;;
16977;SDS011;8605;52.548;4.918;2022-11-15T18:17:36;1.67;;;1.33;;
16977;SDS011;8605;52.548;4.918;2022-11-15T18:22:59;2.23;;;1.30;;
16977;SDS011;8605;52.548;4.918;2022-11-15T18:28:29;3.00;;;1.37;;
16977;SDS011;8605;52.548;4.918;2022-11-15T18:33:54;1.53;;;1.43;;
16977;SDS011;8605;52.548;4.918;2022-11-15T18:39:17;2.27;;;2.07;;
16977;SDS011;8605;52.548;4.918;2022-11-15T18:44:42;4.13;;;1.77;;
16977;SDS011;8605;52.548;4.918;2022-11-15T18:50:06;3.23;;;1.70;;
16977;SDS011;8605;52.548;4.918;2022-11-15T18:55:29;1.87;;;1.50;;
16977;SDS011;8605;52.548;4.918;2022-11-15T19:00:59;5.80;;;1.70;;
16977;SDS011;8605;52.548;4.918;2022-11-15T19:06:24;2.43;;;1.60;;
16977;SDS011;8605;52.548;4.918;2022-11-15T19:11:48;4.33;;;2.00;;
16977;SDS011;8605;52.548;4.918;2022-11-15T19:17:14;3.63;;;2.10;;
16977;SDS011;8605;52.548;4.918;2022-11-15T19:22:37;14.57;;;2.37;;
16977;SDS011;8605;52.548;4.918;2022-11-15T19:28:00;3.67;;;1.80;;
16977;SDS011;8605;52.548;4.918;2022-11-15T19:33:25;4.63;;;2.30;;
16977;SDS011;8605;52.548;4.918;2022-11-15T19:38:50;4.70;;;2.80;;
16977;SDS011;8605;52.548;4.918;2022-11-15T19:44:14;3.47;;;2.27;;
16977;SDS011;8605;52.548;4.918;2022-11-15T19:49:38;8.77;;;2.33;;
16977;SDS011;8605;52.548;4.918;2022-11-15T19:55:02;5.00;;;2.87;;
16977;SDS011;8605;52.548;4.918;2022-11-15T20:00:25;3.40;;;2.40;;
16977;SDS011;8605;52.548;4.918;2022-11-15T20:05:50;4.60;;;2.10;;
16977;SDS011;8605;52.548;4.918;2022-11-15T20:11:13;5.03;;;3.10;;
16977;SDS011;8605;52.548;4.918;2022-11-15T20:16:37;5.70;;;2.93;;
16977;SDS011;8605;52.548;4.918;2022-11-15T20:22:02;5.87;;;3.53;;
16977;SDS011;8605;52.548;4.918;2022-11-15T20:27:25;5.03;;;2.90;;
16977;SDS011;8605;52.548;4.918;2022-11-15T20:32:48;4.03;;;2.87;;
16977;SDS011;8605;52.548;4.918;2022-11-15T20:38:13;6.70;;;4.53;;
16977;SDS011;8605;52.548;4.918;2022-11-15T20:43:37;5.50;;;3.50;;
16977;SDS011;8605;52.548;4.918;2022-11-15T20:49:02;7.67;;;3.63;;
16977;SDS011;8605;52.548;4.918;2022-11-15T20:54:28;5.73;;;4.20;;
16977;SDS011;8605;52.548;4.918;2022-11-15T20:59:51;5.43;;;4.43;;
16977;SDS011;8605;52.548;4.918;2022-11-15T21:05:14;8.27;;;4.27;;
16977;SDS011;8605;52.548;4.918;2022-11-15T21:10:39;7.27;;;4.60;;
16977;SDS011;8605;52.548;4.918;2022-11-15T21:16:20;7.30;;;4.70;;
16977;SDS011;8605;52.548;4.918;2022-11-15T21:21:43;8.63;;;4.73;;
16977;SDS011;8605;52.548;4.918;2022-11-15T21:27:07;8.90;;;5.00;;
16977;SDS011;8605;52.548;4.918;2022-11-15T21:32:30;6.97;;;5.17;;
16977;SDS011;8605;52.548;4.918;2022-11-15T21:37:54;10.03;;;5.13;;
16977;SDS011;8605;52.548;4.918;2022-11-15T21:43:19;9.13;;;4.67;;
16977;SDS011;8605;52.548;4.918;2022-11-15T21:48:42;7.53;;;4.90;;
16977;SDS011;8605;52.548;4.918;2022-11-15T21:54:05;6.93;;;4.63;;
16977;SDS011;8605;52.548;4.918;2022-11-15T21:59:30;7.90;;;5.20;;
16977;SDS011;8605;52.548;4.918;2022-11-15T22:04:53;8.60;;;4.70;;
16977;SDS011;8605;52.548;4.918;2022-11-15T22:10:17;7.30;;;5.50;;
16977;SDS011;8605;52.548;4.918;2022-11-15T22:15:42;7.43;;;5.47;;
16977;SDS011;8605;52.548;4.918;2022-11-15T22:21:07;7.63;;;5.20;;
16977;SDS011;8605;52.548;4.918;2022-11-15T22:26:32;8.10;;;5.77;;
16977;SDS011;8605;52.548;4.918;2022-11-15T22:31:56;10.83;;;6.00;;
16977;SDS011;8605;52.548;4.918;2022-11-15T22:37:19;9.30;;;5.23;;
16977;SDS011;8605;52.548;4.918;2022-11-15T22:42:43;8.80;;;5.50;;
16977;SDS011;8605;52.548;4.918;2022-11-15T22:48:07;8.67;;;5.93;;
16977;SDS011;8605;52.548;4.918;2022-11-15T22:53:30;7.03;;;5.10;;
16977;SDS011;8605;52.548;4.918;2022-11-15T22:58:53;8.70;;;5.63;;
16977;SDS011;8605;52.548;4.918;2022-11-15T23:04:18;8.03;;;5.70;;
16977;SDS011;8605;52.548;4.918;2022-11-15T23:09:41;10.67;;;6.10;;
16977;SDS011;8605;52.548;4.918;2022-11-15T23:15:09;9.37;;;5.33;;
16977;SDS011;8605;52.548;4.918;2022-11-15T23:20:34;11.97;;;6.60;;
16977;SDS011;8605;52.548;4.918;2022-11-15T23:26:04;9.20;;;6.33;;
16977;SDS011;8605;52.548;4.918;2022-11-15T23:31:27;11.63;;;6.67;;
16977;SDS011;8605;52.548;4.918;2022-11-15T23:37:13;13.47;;;6.40;;
16977;SDS011;8605;52.548;4.918;2022-11-15T23:42:37;11.90;;;7.57;;
16977;SDS011;8605;52.548;4.918;2022-11-15T23:48:00;9.53;;;6.50;;
16977;SDS011;8605;52.548;4.918;2022-11-15T23:53:25;13.13;;;6.87;;
16977;SDS011;8605;52.548;4.918;2022-11-15T23:58:48;12.67;;;7.00;;
